createdAt,value
2022-09-21T00:01:34.449Z,101432.52
2022-09-21T00:04:03.985Z,101433.83
2022-09-21T00:06:34.109Z,101434.28
2022-09-21T00:09:05.383Z,101437.31
2022-09-21T00:11:34.558Z,101437.56
2022-09-21T00:14:10.473Z,101434.49
2022-09-21T00:16:39.718Z,101436.59
2022-09-21T00:19:08.075Z,101438.31
2022-09-21T00:21:38.262Z,101435.52
2022-09-21T00:24:07.076Z,101437.95
2022-09-21T00:26:34.876Z,101440.23
2022-09-21T00:29:04.642Z,101437.69
2022-09-21T00:31:33.989Z,101435.85
2022-09-21T00:34:03.684Z,101438.05
2022-09-21T00:36:31.619Z,101442.23
2022-09-21T00:39:01.767Z,101444.59
2022-09-21T00:41:32.162Z,101442.77
2022-09-21T00:44:18.565Z,101440.55
2022-09-21T00:46:49.702Z,101443.95
2022-09-21T00:49:17.994Z,101446.63
2022-09-21T00:51:47.229Z,101447.91
2022-09-21T00:54:22.973Z,101450.15
2022-09-21T00:56:51.001Z,101449.05
2022-09-21T00:59:21.802Z,101446.11
2022-09-21T01:01:51.844Z,101450.44
2022-09-21T01:04:20.383Z,101452.19
2022-09-21T01:06:50.382Z,101450.45
2022-09-21T01:09:19.153Z,101456.10
2022-09-21T01:12:05.482Z,101456.88
2022-09-21T01:14:49.458Z,101457.48
2022-09-21T01:17:31.332Z,101464.00
2022-09-21T01:20:28.380Z,101457.84
2022-09-21T01:23:14.849Z,101455.19
2022-09-21T01:26:11.813Z,101458.11
2022-09-21T01:29:01.207Z,101460.48
2022-09-21T01:31:39.969Z,101464.52
2022-09-21T01:34:16.071Z,101458.27
2022-09-21T01:36:48.377Z,101457.01
2022-09-21T01:39:20.877Z,101461.73
2022-09-21T01:41:52.158Z,101464.08
2022-09-21T01:44:23.906Z,101467.44
2022-09-21T01:46:52.650Z,101471.07
2022-09-21T01:49:27.334Z,101474.08
2022-09-21T01:52:07.232Z,101475.92
2022-09-21T01:54:43.531Z,101466.77
2022-09-21T01:57:19.203Z,101469.38
2022-09-21T01:59:52.810Z,101470.02
2022-09-21T02:02:32.190Z,101471.35
2022-09-21T02:05:05.434Z,101473.89
2022-09-21T02:07:34.826Z,101474.55
2022-09-21T02:10:05.064Z,101477.05
2022-09-21T02:12:33.272Z,101481.84
2022-09-21T02:15:03.000Z,101484.19
2022-09-21T02:17:31.219Z,101481.90
2022-09-21T02:20:00.117Z,101482.24
2022-09-21T02:22:57.241Z,101481.31
2022-09-21T02:25:36.685Z,101481.52
2022-09-21T02:28:11.387Z,101486.88
2022-09-21T02:30:44.235Z,101489.72
2022-09-21T02:33:28.397Z,101487.33
2022-09-21T02:36:36.319Z,101488.25
2022-09-21T02:39:10.911Z,101490.45
2022-09-21T02:42:08.618Z,101489.36
2022-09-21T02:44:41.273Z,101491.86
2022-09-21T02:47:21.836Z,101494.36
2022-09-21T02:49:54.804Z,101496.37
2022-09-21T02:52:25.314Z,101495.59
2022-09-21T02:54:55.752Z,101498.92
2022-09-21T02:57:24.567Z,101499.98
2022-09-21T02:59:52.795Z,101504.02
2022-09-21T03:02:20.597Z,101504.89
2022-09-21T03:04:49.994Z,101507.55
2022-09-21T03:07:18.073Z,101509.91
2022-09-21T03:09:46.644Z,101513.00
2022-09-21T03:12:14.438Z,101510.48
2022-09-21T03:14:42.695Z,101514.69
2022-09-21T03:17:10.426Z,101511.75
2022-09-21T03:19:38.218Z,101514.08
2022-09-21T03:22:05.999Z,101514.06
2022-09-21T03:24:46.389Z,101516.70
2022-09-21T03:27:20.667Z,101516.09
2022-09-21T03:29:48.533Z,101516.69
2022-09-21T03:32:16.386Z,101518.60
2022-09-21T03:34:44.189Z,101514.80
2022-09-21T03:37:12.214Z,101517.13
2022-09-21T03:39:40.130Z,101520.20
2022-09-21T03:42:09.210Z,101522.08
2022-09-21T03:44:37.611Z,101524.03
2022-09-21T03:47:06.679Z,101524.62
2022-09-21T03:49:35.168Z,101526.31
2022-09-21T03:52:03.642Z,101527.92
2022-09-21T03:54:31.512Z,101529.23
2022-09-21T03:56:59.407Z,101525.56
2022-09-21T03:59:27.370Z,101533.63
2022-09-21T04:01:55.173Z,101532.70
2022-09-21T04:04:23.283Z,101531.48
2022-09-21T04:06:51.725Z,101535.64
2022-09-21T04:09:19.633Z,101536.63
2022-09-21T04:11:48.320Z,101544.40
2022-09-21T04:14:16.115Z,101543.77
2022-09-21T04:16:43.877Z,101545.67
2022-09-21T04:19:12.664Z,101545.44
2022-09-21T04:21:40.532Z,101555.91
2022-09-21T04:24:08.588Z,101555.76
2022-09-21T04:26:36.881Z,101559.18
2022-09-21T04:29:05.319Z,101561.92
2022-09-21T04:31:33.535Z,101560.08
2022-09-21T04:34:01.280Z,101559.52
2022-09-21T04:36:34.379Z,101559.73
2022-09-21T04:39:05.742Z,101557.09
2022-09-21T04:41:33.544Z,101552.63
2022-09-21T04:44:02.156Z,101557.15
2022-09-21T04:46:30.147Z,101556.03
2022-09-21T04:48:57.903Z,101562.63
2022-09-21T04:51:25.778Z,101570.27
2022-09-21T04:53:53.813Z,101570.25
2022-09-21T04:56:21.621Z,101574.63
2022-09-21T04:58:49.684Z,101571.80
2022-09-21T05:01:17.568Z,101569.77
2022-09-21T05:03:45.487Z,101570.55
2022-09-21T05:06:13.689Z,101569.77
2022-09-21T05:09:00.385Z,101568.27
2022-09-21T05:11:28.387Z,101572.40
2022-09-21T05:13:56.202Z,101575.80
2022-09-21T05:16:24.010Z,101574.48
2022-09-21T05:18:55.149Z,101576.63
2022-09-21T05:21:23.894Z,101578.48
2022-09-21T05:23:51.907Z,101581.23
2022-09-21T05:26:20.841Z,101585.55
2022-09-21T05:28:49.796Z,101586.45
2022-09-21T05:31:18.467Z,101583.91
2022-09-21T05:34:03.966Z,101586.27
2022-09-21T05:37:02.712Z,101588.14
2022-09-21T05:39:31.164Z,101589.98
2022-09-21T05:41:59.429Z,101593.20
2022-09-21T05:44:27.790Z,101594.65
2022-09-21T05:47:36.327Z,101600.21
2022-09-21T05:50:19.121Z,101608.91
2022-09-21T05:53:02.286Z,101607.32
2022-09-21T05:55:48.582Z,101605.83
2022-09-21T05:58:40.593Z,101607.70
2022-09-21T06:01:11.396Z,101605.09
2022-09-21T06:03:42.106Z,101611.09
